< < Back
Terminal Aerodrome Forecast


Current Version              Previous Versions:   1  2  3  4  5  6  7  8  9  

Terminal Aerodrome Forecast

028
FTUS42 KCAE 260200 AAB
TAFAGS
TAF AMD
KAGS 260232Z 2603/2624 VRB03KT P6SM SCT060
      TEMPO 2603/2604 5SM -SHRA BKN030
     FM260700 VRB03KT P6SM SKC
      TEMPO 2609/2612 3SM BR SKC
     FM261700 25007KT P6SM SKC=

Latest METAR

588
SAUS70 KWBC 260500 RRE
MTRAGS
METAR KAGS 260453Z AUTO 00000KT 5SM BR FEW100 22/22 A3002 RMK AO2 SLP163
T02220217 403280217


USA.gov is the U.S. government's official web portal to all federal, state and local government web resources and services.